sensor_id;sensor_type;location;lat;lon;timestamp;temperature;humidity
63371;DHT22;49504;48.336;14.472;2022-12-18T00:03:44;25.90;39.20
63371;DHT22;49504;48.336;14.472;2022-12-18T00:08:46;25.90;39.10
63371;DHT22;49504;48.336;14.472;2022-12-18T00:13:47;25.90;39.10
63371;DHT22;49504;48.336;14.472;2022-12-18T00:18:51;26.00;39.10
63371;DHT22;49504;48.336;14.472;2022-12-18T00:23:53;25.90;39.00
63371;DHT22;49504;48.336;14.472;2022-12-18T00:28:55;25.90;39.00
63371;DHT22;49504;48.336;14.472;2022-12-18T00:34:00;26.00;39.20
63371;DHT22;49504;48.336;14.472;2022-12-18T00:39:03;26.00;39.20
63371;DHT22;49504;48.336;14.472;2022-12-18T00:44:06;26.00;39.20
63371;DHT22;49504;48.336;14.472;2022-12-18T00:49:14;26.00;39.30
63371;DHT22;49504;48.336;14.472;2022-12-18T00:54:16;26.00;39.20
63371;DHT22;49504;48.336;14.472;2022-12-18T00:59:18;26.00;39.10
63371;DHT22;49504;48.336;14.472;2022-12-18T01:04:20;25.90;39.00
63371;DHT22;49504;48.336;14.472;2022-12-18T01:09:21;25.90;39.00
63371;DHT22;49504;48.336;14.472;2022-12-18T01:14:22;26.00;39.10
63371;DHT22;49504;48.336;14.472;2022-12-18T01:19:24;25.90;39.00
63371;DHT22;49504;48.336;14.472;2022-12-18T01:24:25;25.90;39.00
63371;DHT22;49504;48.336;14.472;2022-12-18T01:29:26;26.00;39.00
63371;DHT22;49504;48.336;14.472;2022-12-18T01:34:29;26.00;39.20
63371;DHT22;49504;48.336;14.472;2022-12-18T01:39:30;25.90;39.10
63371;DHT22;49504;48.336;14.472;2022-12-18T01:44:57;26.00;39.90
63371;DHT22;49504;48.336;14.472;2022-12-18T01:50:05;25.90;39.20
63371;DHT22;49504;48.336;14.472;2022-12-18T01:55:09;25.90;39.10
63371;DHT22;49504;48.336;14.472;2022-12-18T02:00:14;26.00;39.20
63371;DHT22;49504;48.336;14.472;2022-12-18T02:05:21;26.00;39.10
63371;DHT22;49504;48.336;14.472;2022-12-18T02:10:30;25.90;39.00
63371;DHT22;49504;48.336;14.472;2022-12-18T02:15:37;25.90;39.00
63371;DHT22;49504;48.336;14.472;2022-12-18T02:20:44;25.90;39.00
63371;DHT22;49504;48.336;14.472;2022-12-18T02:26:07;25.90;39.00
63371;DHT22;49504;48.336;14.472;2022-12-18T02:31:18;25.90;39.00
63371;DHT22;49504;48.336;14.472;2022-12-18T02:36:25;25.90;39.10
63371;DHT22;49504;48.336;14.472;2022-12-18T02:41:28;25.90;39.00
63371;DHT22;49504;48.336;14.472;2022-12-18T02:46:33;26.00;39.20
63371;DHT22;49504;48.336;14.472;2022-12-18T02:51:43;26.00;39.10
63371;DHT22;49504;48.336;14.472;2022-12-18T02:56:54;26.00;39.10
63371;DHT22;49504;48.336;14.472;2022-12-18T03:01:57;26.00;39.10
63371;DHT22;49504;48.336;14.472;2022-12-18T03:07:05;25.90;39.10
63371;DHT22;49504;48.336;14.472;2022-12-18T03:12:17;26.00;39.00
63371;DHT22;49504;48.336;14.472;2022-12-18T03:17:23;26.00;39.10
63371;DHT22;49504;48.336;14.472;2022-12-18T03:22:30;26.00;39.10
63371;DHT22;49504;48.336;14.472;2022-12-18T03:27:36;26.00;39.20
63371;DHT22;49504;48.336;14.472;2022-12-18T03:32:44;26.00;39.20
63371;DHT22;49504;48.336;14.472;2022-12-18T03:37:47;25.90;39.00
63371;DHT22;49504;48.336;14.472;2022-12-18T03:42:54;26.00;39.00
63371;DHT22;49504;48.336;14.472;2022-12-18T03:48:00;25.90;39.10
63371;DHT22;49504;48.336;14.472;2022-12-18T03:53:12;26.00;39.00
63371;DHT22;49504;48.336;14.472;2022-12-18T03:58:22;25.90;38.90
63371;DHT22;49504;48.336;14.472;2022-12-18T04:03:25;26.00;39.00
63371;DHT22;49504;48.336;14.472;2022-12-18T04:08:28;26.00;39.20
63371;DHT22;49504;48.336;14.472;2022-12-18T04:13:33;26.00;39.10
63371;DHT22;49504;48.336;14.472;2022-12-18T04:18:36;26.00;39.10
63371;DHT22;49504;48.336;14.472;2022-12-18T04:23:37;26.00;39.10
63371;DHT22;49504;48.336;14.472;2022-12-18T04:28:40;25.90;39.00
63371;DHT22;49504;48.336;14.472;2022-12-18T04:33:41;26.00;39.10
63371;DHT22;49504;48.336;14.472;2022-12-18T04:38:42;26.00;39.10
63371;DHT22;49504;48.336;14.472;2022-12-18T04:43:44;25.90;39.10
63371;DHT22;49504;48.336;14.472;2022-12-18T04:48:45;25.90;39.10
63371;DHT22;49504;48.336;14.472;2022-12-18T04:53:46;25.90;39.10
63371;DHT22;49504;48.336;14.472;2022-12-18T04:58:49;25.90;39.10
63371;DHT22;49504;48.336;14.472;2022-12-18T05:03:51;25.90;39.00
63371;DHT22;49504;48.336;14.472;2022-12-18T05:08:52;25.90;39.00
63371;DHT22;49504;48.336;14.472;2022-12-18T05:13:54;25.90;39.00
63371;DHT22;49504;48.336;14.472;2022-12-18T05:18:55;25.90;39.00
63371;DHT22;49504;48.336;14.472;2022-12-18T05:23:56;25.90;39.00
63371;DHT22;49504;48.336;14.472;2022-12-18T05:28:58;25.90;39.00
63371;DHT22;49504;48.336;14.472;2022-12-18T05:33:59;25.90;39.00
63371;DHT22;49504;48.336;14.472;2022-12-18T05:39:00;25.80;39.00
63371;DHT22;49504;48.336;14.472;2022-12-18T05:44:03;25.90;38.90
63371;DHT22;49504;48.336;14.472;2022-12-18T05:49:04;25.90;39.00
63371;DHT22;49504;48.336;14.472;2022-12-18T05:54:05;25.90;39.00
63371;DHT22;49504;48.336;14.472;2022-12-18T05:59:08;25.90;39.00
63371;DHT22;49504;48.336;14.472;2022-12-18T06:04:09;25.90;39.00
63371;DHT22;49504;48.336;14.472;2022-12-18T06:09:10;25.90;39.00
63371;DHT22;49504;48.336;14.472;2022-12-18T06:14:13;25.90;39.00
63371;DHT22;49504;48.336;14.472;2022-12-18T06:19:15;25.90;39.00
63371;DHT22;49504;48.336;14.472;2022-12-18T06:24:16;25.90;39.00
63371;DHT22;49504;48.336;14.472;2022-12-18T06:29:19;25.90;38.90
63371;DHT22;49504;48.336;14.472;2022-12-18T06:34:20;25.90;39.00
63371;DHT22;49504;48.336;14.472;2022-12-18T06:39:21;25.80;38.90
63371;DHT22;49504;48.336;14.472;2022-12-18T06:44:23;25.80;38.90
63371;DHT22;49504;48.336;14.472;2022-12-18T06:49:24;25.90;39.00
63371;DHT22;49504;48.336;14.472;2022-12-18T06:57:59;25.80;38.40
63371;DHT22;49504;48.336;14.472;2022-12-18T07:03:00;25.90;39.10
63371;DHT22;49504;48.336;14.472;2022-12-18T07:08:01;25.90;39.00
63371;DHT22;49504;48.336;14.472;2022-12-18T07:13:03;26.00;38.70
63371;DHT22;49504;48.336;14.472;2022-12-18T07:18:04;26.10;38.70
63371;DHT22;49504;48.336;14.472;2022-12-18T07:23:06;26.20;38.60
63371;DHT22;49504;48.336;14.472;2022-12-18T07:28:08;26.40;38.30
63371;DHT22;49504;48.336;14.472;2022-12-18T07:33:09;26.50;38.30
63371;DHT22;49504;48.336;14.472;2022-12-18T07:38:10;26.70;38.30
63371;DHT22;49504;48.336;14.472;2022-12-18T07:43:15;26.80;38.00
63371;DHT22;49504;48.336;14.472;2022-12-18T07:48:16;27.00;37.80
63371;DHT22;49504;48.336;14.472;2022-12-18T07:53:17;27.10;37.70
63371;DHT22;49504;48.336;14.472;2022-12-18T07:58:20;27.20;37.60
63371;DHT22;49504;48.336;14.472;2022-12-18T08:03:22;27.30;37.30
63371;DHT22;49504;48.336;14.472;2022-12-18T08:08:23;27.40;37.20
63371;DHT22;49504;48.336;14.472;2022-12-18T08:13:26;27.50;37.10
63371;DHT22;49504;48.336;14.472;2022-12-18T08:18:28;27.60;37.80
63371;DHT22;49504;48.336;14.472;2022-12-18T08:23:29;27.80;37.10
63371;DHT22;49504;48.336;14.472;2022-12-18T08:28:32;27.80;37.00
63371;DHT22;49504;48.336;14.472;2022-12-18T08:33:34;28.00;37.50
63371;DHT22;49504;48.336;14.472;2022-12-18T08:38:36;28.00;37.60
63371;DHT22;49504;48.336;14.472;2022-12-18T08:43:39;28.10;39.20
63371;DHT22;49504;48.336;14.472;2022-12-18T08:48:41;28.20;38.00
63371;DHT22;49504;48.336;14.472;2022-12-18T08:53:45;28.30;27.00
63371;DHT22;49504;48.336;14.472;2022-12-18T08:58:51;28.20;25.20
63371;DHT22;49504;48.336;14.472;2022-12-18T09:03:52;28.10;28.30
63371;DHT22;49504;48.336;14.472;2022-12-18T09:08:53;28.00;29.40
63371;DHT22;49504;48.336;14.472;2022-12-18T09:13:57;28.00;31.10
63371;DHT22;49504;48.336;14.472;2022-12-18T09:18:58;27.90;31.80
63371;DHT22;49504;48.336;14.472;2022-12-18T09:24:00;28.00;32.40
63371;DHT22;49504;48.336;14.472;2022-12-18T09:29:02;28.00;32.60
63371;DHT22;49504;48.336;14.472;2022-12-18T09:34:03;28.10;33.30
63371;DHT22;49504;48.336;14.472;2022-12-18T09:39:05;28.10;33.70
63371;DHT22;49504;48.336;14.472;2022-12-18T09:44:13;28.20;33.90
63371;DHT22;49504;48.336;14.472;2022-12-18T09:49:25;28.20;34.30
63371;DHT22;49504;48.336;14.472;2022-12-18T09:55:54;28.30;34.10
63371;DHT22;49504;48.336;14.472;2022-12-18T10:00:56;28.40;35.30
63371;DHT22;49504;48.336;14.472;2022-12-18T10:06:04;28.50;35.70
63371;DHT22;49504;48.336;14.472;2022-12-18T10:11:22;28.60;35.60
63371;DHT22;49504;48.336;14.472;2022-12-18T10:16:43;28.60;35.10
63371;DHT22;49504;48.336;14.472;2022-12-18T10:21:57;28.70;35.10
63371;DHT22;49504;48.336;14.472;2022-12-18T10:27:12;28.60;34.80
63371;DHT22;49504;48.336;14.472;2022-12-18T10:32:16;28.60;35.10
63371;DHT22;49504;48.336;14.472;2022-12-18T10:37:23;28.60;35.10
63371;DHT22;49504;48.336;14.472;2022-12-18T10:42:26;28.50;35.40
63371;DHT22;49504;48.336;14.472;2022-12-18T10:47:28;28.40;35.20
63371;DHT22;49504;48.336;14.472;2022-12-18T10:52:29;28.30;35.30
63371;DHT22;49504;48.336;14.472;2022-12-18T10:57:34;28.20;35.60
63371;DHT22;49504;48.336;14.472;2022-12-18T11:02:37;28.20;36.00
63371;DHT22;49504;48.336;14.472;2022-12-18T11:07:48;28.10;36.40
63371;DHT22;49504;48.336;14.472;2022-12-18T11:12:52;28.00;36.40
63371;DHT22;49504;48.336;14.472;2022-12-18T11:17:53;28.00;36.90
63371;DHT22;49504;48.336;14.472;2022-12-18T11:22:56;27.90;37.00
63371;DHT22;49504;48.336;14.472;2022-12-18T11:28:02;27.90;36.80
63371;DHT22;49504;48.336;14.472;2022-12-18T11:33:06;27.80;36.70
63371;DHT22;49504;48.336;14.472;2022-12-18T11:38:19;27.80;36.80
63371;DHT22;49504;48.336;14.472;2022-12-18T11:43:29;27.70;36.80
63371;DHT22;49504;48.336;14.472;2022-12-18T11:48:41;27.60;36.90
63371;DHT22;49504;48.336;14.472;2022-12-18T11:53:46;27.60;36.90
63371;DHT22;49504;48.336;14.472;2022-12-18T11:58:54;27.60;37.20
63371;DHT22;49504;48.336;14.472;2022-12-18T12:10:02;27.50;37.20
63371;DHT22;49504;48.336;14.472;2022-12-18T12:15:28;27.50;37.40
63371;DHT22;49504;48.336;14.472;2022-12-18T12:20:47;27.40;37.50
63371;DHT22;49504;48.336;14.472;2022-12-18T12:25:57;27.40;37.60
63371;DHT22;49504;48.336;14.472;2022-12-18T12:34:18;27.30;36.90
63371;DHT22;49504;48.336;14.472;2022-12-18T12:39:25;27.30;37.70
63371;DHT22;49504;48.336;14.472;2022-12-18T12:44:34;27.30;38.10
63371;DHT22;49504;48.336;14.472;2022-12-18T12:49:41;27.30;38.20
63371;DHT22;49504;48.336;14.472;2022-12-18T12:54:43;27.30;38.70
63371;DHT22;49504;48.336;14.472;2022-12-18T12:59:49;27.30;37.90
63371;DHT22;49504;48.336;14.472;2022-12-18T13:05:02;27.30;37.90
63371;DHT22;49504;48.336;14.472;2022-12-18T13:10:34;27.20;37.80
63371;DHT22;49504;48.336;14.472;2022-12-18T13:15:40;27.20;37.80
63371;DHT22;49504;48.336;14.472;2022-12-18T13:20:45;27.20;37.90
63371;DHT22;49504;48.336;14.472;2022-12-18T13:25:47;27.20;37.90
63371;DHT22;49504;48.336;14.472;2022-12-18T13:30:51;27.20;38.00
63371;DHT22;49504;48.336;14.472;2022-12-18T13:36:01;27.20;38.10
63371;DHT22;49504;48.336;14.472;2022-12-18T13:41:23;27.20;38.00
63371;DHT22;49504;48.336;14.472;2022-12-18T13:46:27;27.20;37.80
63371;DHT22;49504;48.336;14.472;2022-12-18T13:51:33;27.10;37.80
63371;DHT22;49504;48.336;14.472;2022-12-18T13:56:44;27.10;37.70
63371;DHT22;49504;48.336;14.472;2022-12-18T14:01:50;27.10;37.70
63371;DHT22;49504;48.336;14.472;2022-12-18T14:06:57;27.10;38.00
63371;DHT22;49504;48.336;14.472;2022-12-18T14:12:45;27.00;37.20
63371;DHT22;49504;48.336;14.472;2022-12-18T14:17:49;27.10;37.90
63371;DHT22;49504;48.336;14.472;2022-12-18T14:22:51;27.00;38.00
63371;DHT22;49504;48.336;14.472;2022-12-18T14:28:12;27.00;37.80
63371;DHT22;49504;48.336;14.472;2022-12-18T14:33:15;27.00;37.80
63371;DHT22;49504;48.336;14.472;2022-12-18T14:38:22;27.00;37.90
63371;DHT22;49504;48.336;14.472;2022-12-18T14:43:31;26.90;37.90
63371;DHT22;49504;48.336;14.472;2022-12-18T14:48:38;27.00;38.00
63371;DHT22;49504;48.336;14.472;2022-12-18T14:53:43;27.00;38.00
63371;DHT22;49504;48.336;14.472;2022-12-18T14:58:51;26.90;38.10
63371;DHT22;49504;48.336;14.472;2022-12-18T15:03:57;26.90;37.90
63371;DHT22;49504;48.336;14.472;2022-12-18T15:08:59;26.90;37.80
63371;DHT22;49504;48.336;14.472;2022-12-18T15:14:38;26.90;38.00
63371;DHT22;49504;48.336;14.472;2022-12-18T15:19:42;26.90;38.00
63371;DHT22;49504;48.336;14.472;2022-12-18T15:24:44;26.90;38.10
63371;DHT22;49504;48.336;14.472;2022-12-18T15:29:59;26.80;37.90
63371;DHT22;49504;48.336;14.472;2022-12-18T15:35:18;26.80;37.70
63371;DHT22;49504;48.336;14.472;2022-12-18T15:40:23;26.80;37.80
63371;DHT22;49504;48.336;14.472;2022-12-18T15:45:26;26.80;37.80
63371;DHT22;49504;48.336;14.472;2022-12-18T15:50:27;26.80;37.90
63371;DHT22;49504;48.336;14.472;2022-12-18T15:55:29;26.70;37.70
63371;DHT22;49504;48.336;14.472;2022-12-18T16:00:32;26.80;38.30
63371;DHT22;49504;48.336;14.472;2022-12-18T16:05:33;26.70;37.70
63371;DHT22;49504;48.336;14.472;2022-12-18T16:10:35;26.70;37.70
63371;DHT22;49504;48.336;14.472;2022-12-18T16:15:38;26.70;37.70
63371;DHT22;49504;48.336;14.472;2022-12-18T16:20:39;26.70;37.70
63371;DHT22;49504;48.336;14.472;2022-12-18T16:25:41;26.70;37.80
63371;DHT22;49504;48.336;14.472;2022-12-18T16:30:43;26.60;37.70
63371;DHT22;49504;48.336;14.472;2022-12-18T16:35:51;26.60;37.70
63371;DHT22;49504;48.336;14.472;2022-12-18T16:40:52;26.60;37.70
63371;DHT22;49504;48.336;14.472;2022-12-18T16:45:58;26.60;37.70
63371;DHT22;49504;48.336;14.472;2022-12-18T16:51:00;26.60;37.80
63371;DHT22;49504;48.336;14.472;2022-12-18T16:56:03;26.60;37.80
63371;DHT22;49504;48.336;14.472;2022-12-18T17:01:09;26.50;37.70
63371;DHT22;49504;48.336;14.472;2022-12-18T17:06:11;26.50;37.80
63371;DHT22;49504;48.336;14.472;2022-12-18T17:11:13;26.50;37.80
63371;DHT22;49504;48.336;14.472;2022-12-18T17:16:16;26.50;37.80
63371;DHT22;49504;48.336;14.472;2022-12-18T17:21:19;26.50;37.90
63371;DHT22;49504;48.336;14.472;2022-12-18T17:26:21;26.40;37.80
63371;DHT22;49504;48.336;14.472;2022-12-18T17:31:26;26.40;37.90
63371;DHT22;49504;48.336;14.472;2022-12-18T17:36:30;26.40;37.90
63371;DHT22;49504;48.336;14.472;2022-12-18T17:41:33;26.40;37.90
63371;DHT22;49504;48.336;14.472;2022-12-18T17:46:38;26.40;37.90
63371;DHT22;49504;48.336;14.472;2022-12-18T17:51:40;26.30;37.90
63371;DHT22;49504;48.336;14.472;2022-12-18T17:56:43;26.30;37.90
63371;DHT22;49504;48.336;14.472;2022-12-18T18:03:19;26.30;37.10
63371;DHT22;49504;48.336;14.472;2022-12-18T18:08:22;26.30;37.50
63371;DHT22;49504;48.336;14.472;2022-12-18T18:13:26;26.30;37.40
63371;DHT22;49504;48.336;14.472;2022-12-18T18:18:31;26.30;37.60
63371;DHT22;49504;48.336;14.472;2022-12-18T18:23:34;26.30;38.30
63371;DHT22;49504;48.336;14.472;2022-12-18T18:28:37;26.20;37.40
63371;DHT22;49504;48.336;14.472;2022-12-18T18:33:41;26.30;37.50
63371;DHT22;49504;48.336;14.472;2022-12-18T18:40:41;26.30;37.00
63371;DHT22;49504;48.336;14.472;2022-12-18T18:45:42;26.30;37.20
63371;DHT22;49504;48.336;14.472;2022-12-18T18:50:43;26.30;37.00
63371;DHT22;49504;48.336;14.472;2022-12-18T18:55:46;26.30;37.30
63371;DHT22;49504;48.336;14.472;2022-12-18T19:00:54;26.30;37.80
63371;DHT22;49504;48.336;14.472;2022-12-18T19:05:57;26.30;37.80
63371;DHT22;49504;48.336;14.472;2022-12-18T19:11:01;26.30;37.80
63371;DHT22;49504;48.336;14.472;2022-12-18T19:16:05;26.30;37.90
63371;DHT22;49504;48.336;14.472;2022-12-18T19:21:08;26.30;37.90
63371;DHT22;49504;48.336;14.472;2022-12-18T19:26:11;26.30;38.00
63371;DHT22;49504;48.336;14.472;2022-12-18T19:31:14;26.30;38.00
63371;DHT22;49504;48.336;14.472;2022-12-18T19:36:18;26.30;38.00
63371;DHT22;49504;48.336;14.472;2022-12-18T19:41:23;26.20;37.90
63371;DHT22;49504;48.336;14.472;2022-12-18T19:46:24;26.20;37.90
63371;DHT22;49504;48.336;14.472;2022-12-18T19:51:27;26.30;38.10
63371;DHT22;49504;48.336;14.472;2022-12-18T19:56:31;26.20;38.00
63371;DHT22;49504;48.336;14.472;2022-12-18T20:01:33;26.20;38.00
63371;DHT22;49504;48.336;14.472;2022-12-18T20:06:35;26.20;38.00
63371;DHT22;49504;48.336;14.472;2022-12-18T20:11:47;26.20;38.00
63371;DHT22;49504;48.336;14.472;2022-12-18T20:16:49;26.20;38.00
63371;DHT22;49504;48.336;14.472;2022-12-18T20:21:50;26.20;38.00
63371;DHT22;49504;48.336;14.472;2022-12-18T20:26:53;26.20;38.10
63371;DHT22;49504;48.336;14.472;2022-12-18T20:31:54;26.20;38.10
63371;DHT22;49504;48.336;14.472;2022-12-18T20:36:55;26.20;38.10
63371;DHT22;49504;48.336;14.472;2022-12-18T20:41:57;26.20;38.10
63371;DHT22;49504;48.336;14.472;2022-12-18T20:46:59;26.20;38.20
63371;DHT22;49504;48.336;14.472;2022-12-18T20:52:00;26.20;38.90
63371;DHT22;49504;48.336;14.472;2022-12-18T20:57:02;26.20;38.20
63371;DHT22;49504;48.336;14.472;2022-12-18T21:02:03;26.20;38.20
63371;DHT22;49504;48.336;14.472;2022-12-18T21:07:04;26.20;38.20
63371;DHT22;49504;48.336;14.472;2022-12-18T21:12:11;26.20;38.30
63371;DHT22;49504;48.336;14.472;2022-12-18T21:17:13;26.20;38.30
63371;DHT22;49504;48.336;14.472;2022-12-18T21:22:14;26.10;38.20
63371;DHT22;49504;48.336;14.472;2022-12-18T21:27:16;26.10;38.20
63371;DHT22;49504;48.336;14.472;2022-12-18T21:32:17;26.10;38.30
63371;DHT22;49504;48.336;14.472;2022-12-18T21:37:18;26.20;38.30
63371;DHT22;49504;48.336;14.472;2022-12-18T21:42:20;26.10;38.30
63371;DHT22;49504;48.336;14.472;2022-12-18T21:47:22;26.10;38.20
63371;DHT22;49504;48.336;14.472;2022-12-18T21:52:23;26.20;38.30
63371;DHT22;49504;48.336;14.472;2022-12-18T21:57:25;26.10;38.20
63371;DHT22;49504;48.336;14.472;2022-12-18T22:02:26;26.10;38.30
63371;DHT22;49504;48.336;14.472;2022-12-18T22:07:27;26.10;38.20
63371;DHT22;49504;48.336;14.472;2022-12-18T22:12:29;26.10;38.30
63371;DHT22;49504;48.336;14.472;2022-12-18T22:17:31;26.10;38.30
63371;DHT22;49504;48.336;14.472;2022-12-18T22:23:41;26.10;37.70
63371;DHT22;49504;48.336;14.472;2022-12-18T22:28:42;26.10;38.30
63371;DHT22;49504;48.336;14.472;2022-12-18T22:33:43;26.10;38.20
63371;DHT22;49504;48.336;14.472;2022-12-18T22:38:46;26.10;38.30
63371;DHT22;49504;48.336;14.472;2022-12-18T22:43:47;26.10;38.40
63371;DHT22;49504;48.336;14.472;2022-12-18T22:48:49;26.10;38.50
63371;DHT22;49504;48.336;14.472;2022-12-18T22:53:51;26.10;38.50
63371;DHT22;49504;48.336;14.472;2022-12-18T22:58:52;26.10;38.50
63371;DHT22;49504;48.336;14.472;2022-12-18T23:03:53;26.10;38.60
63371;DHT22;49504;48.336;14.472;2022-12-18T23:08:56;26.10;38.50
63371;DHT22;49504;48.336;14.472;2022-12-18T23:13:57;26.10;38.70
63371;DHT22;49504;48.336;14.472;2022-12-18T23:18:58;26.10;38.50
63371;DHT22;49504;48.336;14.472;2022-12-18T23:24:01;26.10;38.50
63371;DHT22;49504;48.336;14.472;2022-12-18T23:29:02;26.10;38.60
63371;DHT22;49504;48.336;14.472;2022-12-18T23:34:04;26.10;38.50
63371;DHT22;49504;48.336;14.472;2022-12-18T23:39:09;26.10;38.60
63371;DHT22;49504;48.336;14.472;2022-12-18T23:44:11;26.10;38.60
63371;DHT22;49504;48.336;14.472;2022-12-18T23:49:12;26.10;38.40
63371;DHT22;49504;48.336;14.472;2022-12-18T23:54:14;26.10;38.40
63371;DHT22;49504;48.336;14.472;2022-12-18T23:59:15;26.10;38.40
